sensor_id;sensor_type;location;lat;lon;timestamp;P1;durP1;ratioP1;P2;durP2;ratioP2
31347;SDS011;21711;49.708;18.568;2023-03-12T00:00:05;11.03;;;5.17;;
31347;SDS011;21711;49.708;18.568;2023-03-12T00:02:35;12.20;;;5.45;;
31347;SDS011;21711;49.708;18.568;2023-03-12T00:05:03;12.73;;;5.63;;
31347;SDS011;21711;49.708;18.568;2023-03-12T00:07:31;9.70;;;5.07;;
31347;SDS011;21711;49.708;18.568;2023-03-12T00:09:58;18.50;;;6.87;;
31347;SDS011;21711;49.708;18.568;2023-03-12T00:12:25;9.20;;;4.53;;
31347;SDS011;21711;49.708;18.568;2023-03-12T00:14:53;13.60;;;6.20;;
31347;SDS011;21711;49.708;18.568;2023-03-12T00:17:20;14.07;;;5.30;;
31347;SDS011;21711;49.708;18.568;2023-03-12T00:19:51;11.13;;;4.80;;
31347;SDS011;21711;49.708;18.568;2023-03-12T00:22:19;12.10;;;5.03;;
31347;SDS011;21711;49.708;18.568;2023-03-12T00:24:51;12.73;;;5.30;;
31347;SDS011;21711;49.708;18.568;2023-03-12T00:27:23;9.70;;;4.90;;
31347;SDS011;21711;49.708;18.568;2023-03-12T00:29:51;9.33;;;4.90;;
31347;SDS011;21711;49.708;18.568;2023-03-12T00:32:19;10.93;;;4.77;;
31347;SDS011;21711;49.708;18.568;2023-03-12T00:34:51;10.37;;;5.70;;
31347;SDS011;21711;49.708;18.568;2023-03-12T00:37:20;10.67;;;4.87;;
31347;SDS011;21711;49.708;18.568;2023-03-12T00:39:48;9.87;;;4.93;;
31347;SDS011;21711;49.708;18.568;2023-03-12T00:42:16;11.47;;;5.10;;
31347;SDS011;21711;49.708;18.568;2023-03-12T00:44:43;10.17;;;4.90;;
31347;SDS011;21711;49.708;18.568;2023-03-12T00:47:11;10.13;;;4.67;;
31347;SDS011;21711;49.708;18.568;2023-03-12T00:49:39;11.50;;;5.43;;
31347;SDS011;21711;49.708;18.568;2023-03-12T00:52:07;11.33;;;5.13;;
31347;SDS011;21711;49.708;18.568;2023-03-12T00:54:34;11.63;;;4.40;;
31347;SDS011;21711;49.708;18.568;2023-03-12T00:57:02;9.90;;;4.53;;
31347;SDS011;21711;49.708;18.568;2023-03-12T00:59:30;12.60;;;5.07;;
31347;SDS011;21711;49.708;18.568;2023-03-12T01:01:58;9.97;;;4.73;;
31347;SDS011;21711;49.708;18.568;2023-03-12T01:04:25;9.80;;;4.17;;
31347;SDS011;21711;49.708;18.568;2023-03-12T01:06:53;11.40;;;4.67;;
31347;SDS011;21711;49.708;18.568;2023-03-12T01:09:21;13.63;;;4.60;;
31347;SDS011;21711;49.708;18.568;2023-03-12T01:11:50;10.67;;;4.77;;
31347;SDS011;21711;49.708;18.568;2023-03-12T01:14:17;10.50;;;5.03;;
31347;SDS011;21711;49.708;18.568;2023-03-12T01:16:45;10.90;;;4.67;;
31347;SDS011;21711;49.708;18.568;2023-03-12T01:19:12;10.30;;;4.67;;
31347;SDS011;21711;49.708;18.568;2023-03-12T01:21:40;9.77;;;4.10;;
31347;SDS011;21711;49.708;18.568;2023-03-12T01:24:07;11.10;;;4.57;;
31347;SDS011;21711;49.708;18.568;2023-03-12T01:26:35;9.73;;;3.60;;
31347;SDS011;21711;49.708;18.568;2023-03-12T01:29:02;10.53;;;4.77;;
31347;SDS011;21711;49.708;18.568;2023-03-12T01:31:30;12.40;;;4.50;;
31347;SDS011;21711;49.708;18.568;2023-03-12T01:33:57;14.90;;;4.50;;
31347;SDS011;21711;49.708;18.568;2023-03-12T01:36:26;8.87;;;4.13;;
31347;SDS011;21711;49.708;18.568;2023-03-12T01:38:55;9.53;;;4.33;;
31347;SDS011;21711;49.708;18.568;2023-03-12T01:41:26;9.68;;;4.60;;
31347;SDS011;21711;49.708;18.568;2023-03-12T01:43:57;11.93;;;4.57;;
31347;SDS011;21711;49.708;18.568;2023-03-12T01:46:30;13.77;;;4.20;;
31347;SDS011;21711;49.708;18.568;2023-03-12T01:51:40;9.07;;;4.33;;
31347;SDS011;21711;49.708;18.568;2023-03-12T01:54:35;12.57;;;4.73;;
31347;SDS011;21711;49.708;18.568;2023-03-12T01:57:11;16.50;;;5.37;;
31347;SDS011;21711;49.708;18.568;2023-03-12T01:59:49;13.97;;;5.40;;
31347;SDS011;21711;49.708;18.568;2023-03-12T02:02:21;14.00;;;5.40;;
31347;SDS011;21711;49.708;18.568;2023-03-12T02:05:02;12.57;;;4.80;;
31347;SDS011;21711;49.708;18.568;2023-03-12T02:07:34;12.97;;;5.60;;
31347;SDS011;21711;49.708;18.568;2023-03-12T02:10:02;11.27;;;4.50;;
31347;SDS011;21711;49.708;18.568;2023-03-12T02:12:30;13.57;;;4.73;;
31347;SDS011;21711;49.708;18.568;2023-03-12T02:14:58;13.60;;;5.17;;
31347;SDS011;21711;49.708;18.568;2023-03-12T02:17:25;12.93;;;5.13;;
31347;SDS011;21711;49.708;18.568;2023-03-12T02:20:03;14.37;;;5.50;;
31347;SDS011;21711;49.708;18.568;2023-03-12T02:22:43;13.77;;;5.57;;
31347;SDS011;21711;49.708;18.568;2023-03-12T02:25:34;10.53;;;4.70;;
31347;SDS011;21711;49.708;18.568;2023-03-12T02:28:11;8.60;;;4.20;;
31347;SDS011;21711;49.708;18.568;2023-03-12T02:30:42;13.23;;;5.07;;
31347;SDS011;21711;49.708;18.568;2023-03-12T02:33:15;14.93;;;5.97;;
31347;SDS011;21711;49.708;18.568;2023-03-12T02:35:44;12.93;;;4.73;;
31347;SDS011;21711;49.708;18.568;2023-03-12T02:38:28;12.52;;;5.15;;
31347;SDS011;21711;49.708;18.568;2023-03-12T02:41:01;13.30;;;5.63;;
31347;SDS011;21711;49.708;18.568;2023-03-12T02:43:45;15.60;;;5.10;;
31347;SDS011;21711;49.708;18.568;2023-03-12T02:46:24;12.07;;;5.07;;
31347;SDS011;21711;49.708;18.568;2023-03-12T02:48:52;12.70;;;5.13;;
31347;SDS011;21711;49.708;18.568;2023-03-12T02:51:20;13.40;;;5.60;;
31347;SDS011;21711;49.708;18.568;2023-03-12T02:53:47;11.33;;;4.90;;
31347;SDS011;21711;49.708;18.568;2023-03-12T02:56:21;13.93;;;5.50;;
31347;SDS011;21711;49.708;18.568;2023-03-12T02:58:53;11.67;;;4.67;;
31347;SDS011;21711;49.708;18.568;2023-03-12T03:01:22;18.60;;;5.37;;
31347;SDS011;21711;49.708;18.568;2023-03-12T03:03:49;15.63;;;5.17;;
31347;SDS011;21711;49.708;18.568;2023-03-12T03:06:16;12.73;;;4.73;;
31347;SDS011;21711;49.708;18.568;2023-03-12T03:08:44;15.53;;;5.97;;
31347;SDS011;21711;49.708;18.568;2023-03-12T03:11:12;15.70;;;5.67;;
31347;SDS011;21711;49.708;18.568;2023-03-12T03:13:39;9.53;;;4.77;;
31347;SDS011;21711;49.708;18.568;2023-03-12T03:16:07;11.27;;;4.57;;
31347;SDS011;21711;49.708;18.568;2023-03-12T03:18:35;8.87;;;3.43;;
31347;SDS011;21711;49.708;18.568;2023-03-12T03:21:03;10.63;;;4.30;;
31347;SDS011;21711;49.708;18.568;2023-03-12T03:23:35;10.37;;;4.00;;
31347;SDS011;21711;49.708;18.568;2023-03-12T03:26:02;7.60;;;3.20;;
31347;SDS011;21711;49.708;18.568;2023-03-12T03:28:30;11.40;;;3.83;;
31347;SDS011;21711;49.708;18.568;2023-03-12T03:30:58;9.30;;;3.30;;
31347;SDS011;21711;49.708;18.568;2023-03-12T03:33:32;9.30;;;4.00;;
31347;SDS011;21711;49.708;18.568;2023-03-12T03:36:02;9.43;;;3.70;;
31347;SDS011;21711;49.708;18.568;2023-03-12T03:38:34;8.43;;;3.90;;
31347;SDS011;21711;49.708;18.568;2023-03-12T03:41:03;7.60;;;3.83;;
31347;SDS011;21711;49.708;18.568;2023-03-12T03:43:33;10.30;;;3.45;;
31347;SDS011;21711;49.708;18.568;2023-03-12T03:46:01;7.37;;;3.37;;
31347;SDS011;21711;49.708;18.568;2023-03-12T03:48:35;9.80;;;3.77;;
31347;SDS011;21711;49.708;18.568;2023-03-12T03:51:03;13.50;;;4.17;;
31347;SDS011;21711;49.708;18.568;2023-03-12T03:53:34;11.23;;;3.80;;
31347;SDS011;21711;49.708;18.568;2023-03-12T03:56:09;11.10;;;4.20;;
31347;SDS011;21711;49.708;18.568;2023-03-12T03:58:44;7.33;;;3.27;;
31347;SDS011;21711;49.708;18.568;2023-03-12T04:01:13;10.13;;;3.57;;
31347;SDS011;21711;49.708;18.568;2023-03-12T04:03:42;9.90;;;3.50;;
31347;SDS011;21711;49.708;18.568;2023-03-12T04:06:10;9.10;;;3.57;;
31347;SDS011;21711;49.708;18.568;2023-03-12T04:08:38;11.17;;;3.33;;
31347;SDS011;21711;49.708;18.568;2023-03-12T04:11:13;9.00;;;4.00;;
31347;SDS011;21711;49.708;18.568;2023-03-12T04:13:43;10.40;;;3.47;;
31347;SDS011;21711;49.708;18.568;2023-03-12T04:16:14;8.75;;;3.72;;
31347;SDS011;21711;49.708;18.568;2023-03-12T04:18:42;14.63;;;4.97;;
31347;SDS011;21711;49.708;18.568;2023-03-12T04:21:11;14.83;;;6.13;;
31347;SDS011;21711;49.708;18.568;2023-03-12T04:23:41;16.03;;;6.53;;
31347;SDS011;21711;49.708;18.568;2023-03-12T04:26:10;15.20;;;5.70;;
31347;SDS011;21711;49.708;18.568;2023-03-12T04:28:38;19.63;;;6.20;;
31347;SDS011;21711;49.708;18.568;2023-03-12T04:31:06;10.70;;;5.13;;
31347;SDS011;21711;49.708;18.568;2023-03-12T04:33:44;17.27;;;5.93;;
31347;SDS011;21711;49.708;18.568;2023-03-12T04:36:11;14.50;;;5.47;;
31347;SDS011;21711;49.708;18.568;2023-03-12T04:38:43;13.57;;;5.43;;
31347;SDS011;21711;49.708;18.568;2023-03-12T04:41:14;14.10;;;5.47;;
31347;SDS011;21711;49.708;18.568;2023-03-12T04:43:47;15.97;;;5.33;;
31347;SDS011;21711;49.708;18.568;2023-03-12T04:46:16;17.87;;;6.03;;
31347;SDS011;21711;49.708;18.568;2023-03-12T04:48:43;14.93;;;5.97;;
31347;SDS011;21711;49.708;18.568;2023-03-12T04:51:12;11.17;;;5.87;;
31347;SDS011;21711;49.708;18.568;2023-03-12T04:53:39;17.57;;;7.07;;
31347;SDS011;21711;49.708;18.568;2023-03-12T04:56:08;14.70;;;6.10;;
31347;SDS011;21711;49.708;18.568;2023-03-12T04:58:37;18.00;;;5.67;;
31347;SDS011;21711;49.708;18.568;2023-03-12T05:01:05;15.10;;;6.17;;
31347;SDS011;21711;49.708;18.568;2023-03-12T05:03:32;17.63;;;5.23;;
31347;SDS011;21711;49.708;18.568;2023-03-12T05:06:00;21.47;;;7.43;;
31347;SDS011;21711;49.708;18.568;2023-03-12T05:08:28;21.77;;;8.67;;
31347;SDS011;21711;49.708;18.568;2023-03-12T05:10:55;17.97;;;6.47;;
31347;SDS011;21711;49.708;18.568;2023-03-12T05:13:24;17.37;;;5.90;;
31347;SDS011;21711;49.708;18.568;2023-03-12T05:15:55;17.02;;;6.25;;
31347;SDS011;21711;49.708;18.568;2023-03-12T05:18:22;15.57;;;5.50;;
31347;SDS011;21711;49.708;18.568;2023-03-12T05:23:42;12.40;;;5.03;;
31347;SDS011;21711;49.708;18.568;2023-03-12T05:28:59;10.73;;;5.43;;
31347;SDS011;21711;49.708;18.568;2023-03-12T05:31:27;10.77;;;4.03;;
31347;SDS011;21711;49.708;18.568;2023-03-12T05:33:59;7.37;;;4.07;;
31347;SDS011;21711;49.708;18.568;2023-03-12T05:36:29;7.43;;;3.72;;
31347;SDS011;21711;49.708;18.568;2023-03-12T05:38:58;10.10;;;4.30;;
31347;SDS011;21711;49.708;18.568;2023-03-12T05:41:28;10.55;;;4.70;;
31347;SDS011;21711;49.708;18.568;2023-03-12T05:44:02;27.37;;;6.53;;
31347;SDS011;21711;49.708;18.568;2023-03-12T05:46:29;9.00;;;4.63;;
31347;SDS011;21711;49.708;18.568;2023-03-12T05:48:58;10.97;;;4.70;;
31347;SDS011;21711;49.708;18.568;2023-03-12T05:51:26;12.87;;;4.80;;
31347;SDS011;21711;49.708;18.568;2023-03-12T05:53:53;10.07;;;3.97;;
31347;SDS011;21711;49.708;18.568;2023-03-12T05:56:20;10.27;;;3.87;;
31347;SDS011;21711;49.708;18.568;2023-03-12T05:58:48;11.20;;;3.93;;
31347;SDS011;21711;49.708;18.568;2023-03-12T06:01:24;15.53;;;5.60;;
31347;SDS011;21711;49.708;18.568;2023-03-12T06:03:56;11.40;;;4.97;;
31347;SDS011;21711;49.708;18.568;2023-03-12T06:06:24;10.23;;;4.23;;
31347;SDS011;21711;49.708;18.568;2023-03-12T06:08:52;11.03;;;4.13;;
31347;SDS011;21711;49.708;18.568;2023-03-12T06:11:19;7.47;;;3.73;;
31347;SDS011;21711;49.708;18.568;2023-03-12T06:13:47;6.70;;;3.50;;
31347;SDS011;21711;49.708;18.568;2023-03-12T06:16:18;7.07;;;3.30;;
31347;SDS011;21711;49.708;18.568;2023-03-12T06:18:51;5.97;;;3.10;;
31347;SDS011;21711;49.708;18.568;2023-03-12T06:21:21;6.60;;;3.57;;
31347;SDS011;21711;49.708;18.568;2023-03-12T06:23:52;9.65;;;3.83;;
31347;SDS011;21711;49.708;18.568;2023-03-12T06:26:25;8.23;;;3.10;;
31347;SDS011;21711;49.708;18.568;2023-03-12T06:28:53;9.10;;;3.22;;
31347;SDS011;21711;49.708;18.568;2023-03-12T06:31:21;6.40;;;3.55;;
31347;SDS011;21711;49.708;18.568;2023-03-12T06:33:49;6.40;;;3.13;;
31347;SDS011;21711;49.708;18.568;2023-03-12T06:36:19;8.32;;;3.28;;
31347;SDS011;21711;49.708;18.568;2023-03-12T06:38:46;6.93;;;3.08;;
31347;SDS011;21711;49.708;18.568;2023-03-12T06:41:15;6.28;;;3.45;;
31347;SDS011;21711;49.708;18.568;2023-03-12T06:43:44;6.40;;;3.28;;
31347;SDS011;21711;49.708;18.568;2023-03-12T06:46:14;3.97;;;2.10;;
31347;SDS011;21711;49.708;18.568;2023-03-12T06:48:43;5.85;;;2.33;;
31347;SDS011;21711;49.708;18.568;2023-03-12T06:51:13;4.32;;;2.60;;
31347;SDS011;21711;49.708;18.568;2023-03-12T06:53:43;4.57;;;2.92;;
31347;SDS011;21711;49.708;18.568;2023-03-12T06:56:11;9.65;;;3.55;;
31347;SDS011;21711;49.708;18.568;2023-03-12T06:58:39;7.97;;;3.33;;
31347;SDS011;21711;49.708;18.568;2023-03-12T07:01:07;6.25;;;3.30;;
31347;SDS011;21711;49.708;18.568;2023-03-12T07:03:35;9.23;;;4.65;;
31347;SDS011;21711;49.708;18.568;2023-03-12T07:06:03;6.47;;;3.45;;
31347;SDS011;21711;49.708;18.568;2023-03-12T07:08:31;15.25;;;7.55;;
31347;SDS011;21711;49.708;18.568;2023-03-12T07:10:58;35.60;;;17.27;;
31347;SDS011;21711;49.708;18.568;2023-03-12T07:13:27;18.08;;;9.73;;
31347;SDS011;21711;49.708;18.568;2023-03-12T07:15:55;30.65;;;13.73;;
31347;SDS011;21711;49.708;18.568;2023-03-12T07:18:23;133.98;;;50.42;;
31347;SDS011;21711;49.708;18.568;2023-03-12T07:20:51;168.02;;;61.55;;
31347;SDS011;21711;49.708;18.568;2023-03-12T07:23:19;190.52;;;67.50;;
31347;SDS011;21711;49.708;18.568;2023-03-12T07:25:47;79.78;;;28.40;;
31347;SDS011;21711;49.708;18.568;2023-03-12T07:28:16;161.95;;;51.20;;
31347;SDS011;21711;49.708;18.568;2023-03-12T07:30:44;47.85;;;18.48;;
31347;SDS011;21711;49.708;18.568;2023-03-12T07:33:18;26.25;;;8.85;;
31347;SDS011;21711;49.708;18.568;2023-03-12T07:35:47;32.17;;;10.30;;
31347;SDS011;21711;49.708;18.568;2023-03-12T07:38:17;57.50;;;18.73;;
31347;SDS011;21711;49.708;18.568;2023-03-12T07:40:48;19.65;;;7.72;;
31347;SDS011;21711;49.708;18.568;2023-03-12T07:43:21;32.90;;;11.43;;
31347;SDS011;21711;49.708;18.568;2023-03-12T07:45:52;54.75;;;17.58;;
31347;SDS011;21711;49.708;18.568;2023-03-12T07:48:20;15.77;;;6.45;;
31347;SDS011;21711;49.708;18.568;2023-03-12T07:50:47;33.25;;;13.90;;
31347;SDS011;21711;49.708;18.568;2023-03-12T07:53:15;31.85;;;11.38;;
31347;SDS011;21711;49.708;18.568;2023-03-12T07:55:43;46.40;;;16.48;;
31347;SDS011;21711;49.708;18.568;2023-03-12T07:58:12;35.67;;;13.50;;
31347;SDS011;21711;49.708;18.568;2023-03-12T08:00:42;14.47;;;4.97;;
31347;SDS011;21711;49.708;18.568;2023-03-12T08:03:10;9.02;;;4.07;;
31347;SDS011;21711;49.708;18.568;2023-03-12T08:05:39;33.72;;;12.98;;
31347;SDS011;21711;49.708;18.568;2023-03-12T08:08:07;18.48;;;7.97;;
31347;SDS011;21711;49.708;18.568;2023-03-12T08:10:35;7.32;;;3.63;;
31347;SDS011;21711;49.708;18.568;2023-03-12T08:13:02;5.72;;;2.78;;
31347;SDS011;21711;49.708;18.568;2023-03-12T08:15:30;9.25;;;4.80;;
31347;SDS011;21711;49.708;18.568;2023-03-12T08:17:58;19.23;;;9.40;;
31347;SDS011;21711;49.708;18.568;2023-03-12T08:20:26;4.63;;;2.65;;
31347;SDS011;21711;49.708;18.568;2023-03-12T08:22:54;4.20;;;2.90;;
31347;SDS011;21711;49.708;18.568;2023-03-12T08:25:21;6.15;;;3.50;;
31347;SDS011;21711;49.708;18.568;2023-03-12T08:27:50;8.90;;;5.10;;
31347;SDS011;21711;49.708;18.568;2023-03-12T08:30:17;6.93;;;4.50;;
31347;SDS011;21711;49.708;18.568;2023-03-12T08:32:45;8.00;;;4.57;;
31347;SDS011;21711;49.708;18.568;2023-03-12T08:35:12;12.40;;;6.75;;
31347;SDS011;21711;49.708;18.568;2023-03-12T08:37:39;4.15;;;2.75;;
31347;SDS011;21711;49.708;18.568;2023-03-12T08:40:07;5.30;;;3.10;;
31347;SDS011;21711;49.708;18.568;2023-03-12T08:42:41;5.93;;;3.33;;
31347;SDS011;21711;49.708;18.568;2023-03-12T08:45:10;6.13;;;3.20;;
31347;SDS011;21711;49.708;18.568;2023-03-12T08:47:38;8.77;;;4.88;;
31347;SDS011;21711;49.708;18.568;2023-03-12T08:50:09;7.60;;;4.05;;
31347;SDS011;21711;49.708;18.568;2023-03-12T08:52:38;5.45;;;2.83;;
31347;SDS011;21711;49.708;18.568;2023-03-12T08:55:05;5.72;;;3.00;;
31347;SDS011;21711;49.708;18.568;2023-03-12T08:57:33;4.38;;;2.53;;
31347;SDS011;21711;49.708;18.568;2023-03-12T09:00:01;5.43;;;3.20;;
31347;SDS011;21711;49.708;18.568;2023-03-12T09:02:31;5.97;;;3.08;;
31347;SDS011;21711;49.708;18.568;2023-03-12T09:04:58;3.13;;;2.53;;
31347;SDS011;21711;49.708;18.568;2023-03-12T09:07:26;5.22;;;2.97;;
31347;SDS011;21711;49.708;18.568;2023-03-12T09:09:53;5.35;;;3.28;;
31347;SDS011;21711;49.708;18.568;2023-03-12T09:12:21;5.10;;;2.85;;
31347;SDS011;21711;49.708;18.568;2023-03-12T09:14:50;5.75;;;3.13;;
31347;SDS011;21711;49.708;18.568;2023-03-12T09:17:29;3.58;;;2.40;;
31347;SDS011;21711;49.708;18.568;2023-03-12T09:19:57;3.80;;;2.63;;
31347;SDS011;21711;49.708;18.568;2023-03-12T09:22:25;4.30;;;1.98;;
31347;SDS011;21711;49.708;18.568;2023-03-12T09:24:55;3.42;;;2.38;;
31347;SDS011;21711;49.708;18.568;2023-03-12T09:27:23;4.45;;;3.08;;
31347;SDS011;21711;49.708;18.568;2023-03-12T09:29:52;4.18;;;2.60;;
31347;SDS011;21711;49.708;18.568;2023-03-12T09:32:26;8.60;;;4.90;;
31347;SDS011;21711;49.708;18.568;2023-03-12T09:34:55;4.05;;;2.42;;
31347;SDS011;21711;49.708;18.568;2023-03-12T09:37:22;4.55;;;2.15;;
31347;SDS011;21711;49.708;18.568;2023-03-12T09:39:50;3.38;;;2.00;;
31347;SDS011;21711;49.708;18.568;2023-03-12T09:42:25;3.03;;;2.20;;
31347;SDS011;21711;49.708;18.568;2023-03-12T09:45:15;2.72;;;2.05;;
31347;SDS011;21711;49.708;18.568;2023-03-12T09:47:53;3.70;;;2.05;;
31347;SDS011;21711;49.708;18.568;2023-03-12T09:50:31;5.13;;;2.38;;
31347;SDS011;21711;49.708;18.568;2023-03-12T09:53:10;2.75;;;1.45;;
31347;SDS011;21711;49.708;18.568;2023-03-12T09:55:47;2.15;;;1.23;;
31347;SDS011;21711;49.708;18.568;2023-03-12T10:01:00;3.05;;;1.92;;
31347;SDS011;21711;49.708;18.568;2023-03-12T10:12:02;2.42;;;1.60;;
31347;SDS011;21711;49.708;18.568;2023-03-12T10:15:22;3.05;;;1.77;;
31347;SDS011;21711;49.708;18.568;2023-03-12T10:20:57;4.95;;;2.88;;
31347;SDS011;21711;49.708;18.568;2023-03-12T10:23:43;4.47;;;2.60;;
31347;SDS011;21711;49.708;18.568;2023-03-12T10:26:23;15.95;;;8.65;;
31347;SDS011;21711;49.708;18.568;2023-03-12T10:29:16;3.65;;;2.20;;
31347;SDS011;21711;49.708;18.568;2023-03-12T10:31:52;3.38;;;1.73;;
31347;SDS011;21711;49.708;18.568;2023-03-12T10:34:31;4.05;;;1.67;;
31347;SDS011;21711;49.708;18.568;2023-03-12T10:37:19;2.08;;;1.08;;
31347;SDS011;21711;49.708;18.568;2023-03-12T10:39:52;2.58;;;1.50;;
31347;SDS011;21711;49.708;18.568;2023-03-12T10:42:27;7.13;;;2.78;;
31347;SDS011;21711;49.708;18.568;2023-03-12T10:45:00;4.70;;;2.03;;
31347;SDS011;21711;49.708;18.568;2023-03-12T10:47:37;2.50;;;0.90;;
31347;SDS011;21711;49.708;18.568;2023-03-12T10:50:14;2.50;;;1.08;;
31347;SDS011;21711;49.708;18.568;2023-03-12T10:52:46;12.80;;;6.40;;
31347;SDS011;21711;49.708;18.568;2023-03-12T10:55:20;3.75;;;1.35;;
31347;SDS011;21711;49.708;18.568;2023-03-12T10:57:50;25.75;;;12.40;;
31347;SDS011;21711;49.708;18.568;2023-03-12T11:00:22;2.88;;;1.90;;
31347;SDS011;21711;49.708;18.568;2023-03-12T11:02:57;29.42;;;15.20;;
31347;SDS011;21711;49.708;18.568;2023-03-12T11:05:32;22.33;;;11.60;;
31347;SDS011;21711;49.708;18.568;2023-03-12T11:08:02;2.63;;;0.85;;
31347;SDS011;21711;49.708;18.568;2023-03-12T11:10:46;1.98;;;0.95;;
31347;SDS011;21711;49.708;18.568;2023-03-12T11:15:59;3.78;;;2.10;;
31347;SDS011;21711;49.708;18.568;2023-03-12T11:18:55;3.70;;;2.88;;
31347;SDS011;21711;49.708;18.568;2023-03-12T11:21:27;4.25;;;2.40;;
31347;SDS011;21711;49.708;18.568;2023-03-12T11:26:27;3.45;;;2.75;;
31347;SDS011;21711;49.708;18.568;2023-03-12T11:29:24;3.00;;;1.70;;
31347;SDS011;21711;49.708;18.568;2023-03-12T11:32:23;2.53;;;1.02;;
31347;SDS011;21711;49.708;18.568;2023-03-12T11:35:00;4.93;;;2.58;;
31347;SDS011;21711;49.708;18.568;2023-03-12T11:37:37;3.15;;;1.65;;
31347;SDS011;21711;49.708;18.568;2023-03-12T11:43:35;1.35;;;1.10;;
31347;SDS011;21711;49.708;18.568;2023-03-12T11:48:55;5.45;;;2.80;;
31347;SDS011;21711;49.708;18.568;2023-03-12T11:51:43;3.72;;;1.80;;
31347;SDS011;21711;49.708;18.568;2023-03-12T11:54:31;2.95;;;1.77;;
31347;SDS011;21711;49.708;18.568;2023-03-12T11:57:29;3.60;;;2.30;;
31347;SDS011;21711;49.708;18.568;2023-03-12T12:00:15;2.63;;;2.05;;
31347;SDS011;21711;49.708;18.568;2023-03-12T12:03:03;3.13;;;2.67;;
31347;SDS011;21711;49.708;18.568;2023-03-12T12:06:06;4.10;;;3.25;;
31347;SDS011;21711;49.708;18.568;2023-03-12T12:12:09;4.40;;;3.17;;
31347;SDS011;21711;49.708;18.568;2023-03-12T12:18:09;7.70;;;3.10;;
31347;SDS011;21711;49.708;18.568;2023-03-12T12:24:21;3.90;;;2.15;;
31347;SDS011;21711;49.708;18.568;2023-03-12T12:44:10;4.68;;;2.75;;
31347;SDS011;21711;49.708;18.568;2023-03-12T12:46:47;3.65;;;2.50;;
31347;SDS011;21711;49.708;18.568;2023-03-12T12:49:42;4.80;;;2.67;;
31347;SDS011;21711;49.708;18.568;2023-03-12T12:52:16;4.07;;;2.50;;
31347;SDS011;21711;49.708;18.568;2023-03-12T12:57:40;8.43;;;2.50;;
31347;SDS011;21711;49.708;18.568;2023-03-12T13:03:11;2.97;;;1.80;;
31347;SDS011;21711;49.708;18.568;2023-03-12T13:05:54;3.65;;;1.85;;
31347;SDS011;21711;49.708;18.568;2023-03-12T13:11:02;4.07;;;1.75;;
31347;SDS011;21711;49.708;18.568;2023-03-12T13:21:45;5.20;;;2.08;;
31347;SDS011;21711;49.708;18.568;2023-03-12T13:28:54;3.58;;;2.03;;
31347;SDS011;21711;49.708;18.568;2023-03-12T13:36:47;2.35;;;1.63;;
31347;SDS011;21711;49.708;18.568;2023-03-12T13:39:18;1.80;;;1.30;;
31347;SDS011;21711;49.708;18.568;2023-03-12T13:42:01;3.35;;;1.15;;
31347;SDS011;21711;49.708;18.568;2023-03-12T13:45:19;2.33;;;1.35;;
31347;SDS011;21711;49.708;18.568;2023-03-12T13:47:50;2.45;;;1.10;;
31347;SDS011;21711;49.708;18.568;2023-03-12T13:50:23;2.33;;;1.20;;
31347;SDS011;21711;49.708;18.568;2023-03-12T13:53:02;2.97;;;1.60;;
31347;SDS011;21711;49.708;18.568;2023-03-12T13:55:40;2.78;;;1.20;;
31347;SDS011;21711;49.708;18.568;2023-03-12T13:58:13;3.75;;;1.33;;
31347;SDS011;21711;49.708;18.568;2023-03-12T14:00:53;2.93;;;1.80;;
31347;SDS011;21711;49.708;18.568;2023-03-12T14:03:30;5.65;;;2.28;;
31347;SDS011;21711;49.708;18.568;2023-03-12T14:06:07;3.45;;;1.48;;
31347;SDS011;21711;49.708;18.568;2023-03-12T14:17:28;4.72;;;2.05;;
31347;SDS011;21711;49.708;18.568;2023-03-12T14:22:33;3.78;;;1.38;;
